PWSweather.com
Personal Weather Stations
Station Observations
VILLONWMR2
MarseilleFR

MarseilleFR

Lat: 43.2856595, Lon: 5.463368700000046

Elevation: 71

Station Type: wmr200

Latest ConditionsUpdated 12:00:01 PM GMT+01:01 Wednesday, Jan 17, 2018
Currently Today's Max Today's Min Today's Average
Temperature 52.7°F11.5°C 55.8°F13.2°C 50.0°F10.0°C 53.2°F11.8°C
Dew Point 26.6°F-3.0°C 50.0°F10.0°C 26.6°F-3.0°C 39.9°F4.4°C
Winds 3.1 mph NE5.0 kmh NE 3.1 mph NE5.0 kmh NE - 3.1 mph 5.0 kmh
Wind Gusts 5.4 mph8.7 kmh 5.4 mph8.7 kmh - -
Humidity 36% 85% 36% 61%
Pressure 29.80 in1009.1 mb 29.80 in1009.1 mb 29.53 in1000.0 mb -
Precipitation - 0.05 in1.3 mm - -
Hour Temp Dew Point Humidity Winds Wind Gusts Pressure Precip Precip Rate Daily Precip Total
12:00 PM 52.7°F11.5°C 26.6°F-3.0°C 36% 3.1 mph NE5.0 kmh NE 5.4 mph8.7 kmh 29.80 in1009.1 mb 0.00 in0.0 mm 0.00 in0.0 mm 0.05 in1.3 mm
11:45 AM 52.2°F11.2°C 26.6°F-3.0°C 37% 3.1 mph NE5.0 kmh NE 5.4 mph8.7 kmh 29.80 in1009.1 mb 0.00 in0.0 mm 0.00 in0.0 mm 0.05 in1.3 mm
11:30 AM 52.0°F11.1°C 28.4°F-2.0°C 39% 3.1 mph NE5.0 kmh NE 5.4 mph8.7 kmh 29.80 in1009.1 mb 0.00 in0.0 mm 0.00 in0.0 mm 0.05 in1.3 mm
11:15 AM 51.6°F10.9°C 28.4°F-2.0°C 41% 3.1 mph NE5.0 kmh NE 5.4 mph8.7 kmh 29.77 in1008.1 mb 0.00 in0.0 mm 0.00 in0.0 mm 0.05 in1.3 mm
11:00 AM 51.3°F10.7°C 30.2°F-1.0°C 45% 3.1 mph NE5.0 kmh NE 5.4 mph8.7 kmh 29.74 in1007.1 mb 0.00 in0.0 mm 0.00 in0.0 mm 0.05 in1.3 mm
10:45 AM 50.7°F10.4°C 32.0°F0.0°C 48% 3.1 mph NE5.0 kmh NE 5.4 mph8.7 kmh 29.74 in1007.1 mb 0.00 in0.0 mm 0.00 in0.0 mm 0.05 in1.3 mm
10:30 AM 50.5°F10.3°C 32.0°F0.0°C 49% 3.1 mph NE5.0 kmh NE 5.4 mph8.7 kmh 29.74 in1007.1 mb 0.00 in0.0 mm 0.00 in0.0 mm 0.05 in1.3 mm
10:15 AM 50.5°F10.3°C 32.0°F0.0°C 48% 3.1 mph NE5.0 kmh NE 5.4 mph8.7 kmh 29.71 in1006.1 mb 0.00 in0.0 mm 0.00 in0.0 mm 0.05 in1.3 mm
10:00 AM 50.5°F10.3°C 32.0°F0.0°C 48% 3.1 mph NE5.0 kmh NE 5.4 mph8.7 kmh 29.71 in1006.1 mb 0.00 in0.0 mm 0.00 in0.0 mm 0.05 in1.3 mm
09:45 AM 50.0°F10.0°C 32.0°F0.0°C 49% 3.1 mph NE5.0 kmh NE 5.4 mph8.7 kmh 29.68 in1005.1 mb 0.00 in0.0 mm 0.00 in0.0 mm 0.05 in1.3 mm
09:30 AM 50.0°F10.0°C 32.0°F0.0°C 49% 3.1 mph NE5.0 kmh NE 5.4 mph8.7 kmh 29.68 in1005.1 mb 0.00 in0.0 mm 0.00 in0.0 mm 0.05 in1.3 mm
09:15 AM 50.0°F10.0°C 33.8°F1.0°C 51% 3.1 mph NE5.0 kmh NE 5.4 mph8.7 kmh 29.68 in1005.1 mb 0.00 in0.0 mm 0.00 in0.0 mm 0.05 in1.3 mm
09:00 AM 50.2°F10.1°C 33.8°F1.0°C 51% 3.1 mph NE5.0 kmh NE 5.4 mph8.7 kmh 29.68 in1005.1 mb 0.00 in0.0 mm 0.00 in0.0 mm 0.05 in1.3 mm
08:45 AM 50.7°F10.4°C 33.8°F1.0°C 51% 3.1 mph NE5.0 kmh NE 5.4 mph8.7 kmh 29.68 in1005.1 mb 0.00 in0.0 mm 0.00 in0.0 mm 0.05 in1.3 mm
08:30 AM 51.3°F10.7°C 33.8°F1.0°C 51% 3.1 mph NE5.0 kmh NE 5.4 mph8.7 kmh 29.68 in1005.1 mb 0.00 in0.0 mm 0.00 in0.0 mm 0.05 in1.3 mm
08:15 AM 51.8°F11.0°C 33.8°F1.0°C 50% 3.1 mph NE5.0 kmh NE 5.4 mph8.7 kmh 29.62 in1003.0 mb 0.00 in0.0 mm 0.00 in0.0 mm 0.05 in1.3 mm
08:00 AM 52.0°F11.1°C 33.8°F1.0°C 50% 3.1 mph NE5.0 kmh NE 5.4 mph8.7 kmh 29.59 in1002.0 mb 0.00 in0.0 mm 0.00 in0.0 mm 0.05 in1.3 mm
07:45 AM 52.2°F11.2°C 33.8°F1.0°C 50% 3.1 mph NE5.0 kmh NE 5.4 mph8.7 kmh 29.62 in1003.0 mb 0.00 in0.0 mm 0.00 in0.0 mm 0.05 in1.3 mm
07:30 AM 52.3°F11.3°C 33.8°F1.0°C 50% 3.1 mph NE5.0 kmh NE 5.4 mph8.7 kmh 29.59 in1002.0 mb 0.00 in0.0 mm 0.00 in0.0 mm 0.05 in1.3 mm
07:15 AM 52.5°F11.4°C 35.6°F2.0°C 51% 3.1 mph NE5.0 kmh NE 5.4 mph8.7 kmh 29.59 in1002.0 mb 0.00 in0.0 mm 0.00 in0.0 mm 0.05 in1.3 mm
07:00 AM 52.7°F11.5°C 35.6°F2.0°C 52% 3.1 mph NE5.0 kmh NE 5.4 mph8.7 kmh 29.59 in1002.0 mb 0.00 in0.0 mm 0.00 in0.0 mm 0.05 in1.3 mm
06:45 AM 52.9°F11.6°C 35.6°F2.0°C 52% 3.1 mph NE5.0 kmh NE 5.4 mph8.7 kmh 29.56 in1001.0 mb 0.00 in0.0 mm 0.00 in0.0 mm 0.05 in1.3 mm
06:30 AM 53.1°F11.7°C 37.4°F3.0°C 54% 3.1 mph NE5.0 kmh NE 5.4 mph8.7 kmh 29.56 in1001.0 mb 0.00 in0.0 mm 0.00 in0.0 mm 0.05 in1.3 mm
06:15 AM 53.4°F11.9°C 37.4°F3.0°C 54% 3.1 mph NE5.0 kmh NE 5.4 mph8.7 kmh 29.53 in1000.0 mb 0.00 in0.0 mm 0.00 in0.0 mm 0.05 in1.3 mm
06:00 AM 54.3°F12.4°C 39.2°F4.0°C 54% 3.1 mph NE5.0 kmh NE 5.4 mph8.7 kmh 29.53 in1000.0 mb 0.00 in0.0 mm 0.00 in0.0 mm 0.05 in1.3 mm
05:45 AM 54.3°F12.4°C 39.2°F4.0°C 55% 3.1 mph NE5.0 kmh NE 5.4 mph8.7 kmh 29.56 in1001.0 mb 0.00 in0.0 mm 0.00 in0.0 mm 0.05 in1.3 mm
05:30 AM 54.0°F12.2°C 41.0°F5.0°C 59% 3.1 mph NE5.0 kmh NE 5.4 mph8.7 kmh 29.56 in1001.0 mb 0.00 in0.0 mm 0.00 in0.0 mm 0.05 in1.3 mm
05:15 AM 54.3°F12.4°C 41.0°F5.0°C 60% 3.1 mph NE5.0 kmh NE 5.4 mph8.7 kmh 29.56 in1001.0 mb 0.00 in0.0 mm 0.00 in0.0 mm 0.05 in1.3 mm
05:00 AM 54.1°F12.3°C 42.8°F6.0°C 63% 3.1 mph NE5.0 kmh NE 5.4 mph8.7 kmh 29.53 in1000.0 mb 0.00 in0.0 mm 0.00 in0.0 mm 0.05 in1.3 mm
04:45 AM 54.0°F12.2°C 44.6°F7.0°C 70% 3.1 mph NE5.0 kmh NE 5.4 mph8.7 kmh 29.56 in1001.0 mb 0.00 in0.0 mm 0.00 in0.0 mm 0.05 in1.3 mm
04:30 AM 53.8°F12.1°C 46.4°F8.0°C 76% 3.1 mph NE5.0 kmh NE 5.4 mph8.7 kmh 29.56 in1001.0 mb 0.00 in0.0 mm 0.00 in0.0 mm 0.05 in1.3 mm
04:15 AM 54.0°F12.2°C 48.2°F9.0°C 79% 3.1 mph NE5.0 kmh NE 5.4 mph8.7 kmh 29.56 in1001.0 mb 0.00 in0.0 mm 0.00 in0.0 mm 0.05 in1.3 mm
04:00 AM 54.0°F12.2°C 48.2°F9.0°C 83% 3.1 mph NE5.0 kmh NE 5.4 mph8.7 kmh 29.56 in1001.0 mb 0.05 in1.3 mm 0.00 in0.0 mm 0.05 in1.3 mm
03:45 AM 53.6°F12.0°C 50.0°F10.0°C 84% 3.1 mph NE5.0 kmh NE 5.4 mph8.7 kmh 29.56 in1001.0 mb 0.05 in1.3 mm 0.00 in0.0 mm 0.05 in1.3 mm
03:30 AM 53.6°F12.0°C 50.0°F10.0°C 84% 3.1 mph NE5.0 kmh NE 5.4 mph8.7 kmh 29.56 in1001.0 mb 0.05 in1.3 mm 0.00 in0.0 mm 0.05 in1.3 mm
03:15 AM 53.4°F11.9°C 50.0°F10.0°C 85% 3.1 mph NE5.0 kmh NE 5.4 mph8.7 kmh 29.56 in1001.0 mb 0.05 in1.3 mm 0.20 in5.1 mm 0.05 in1.3 mm
03:00 AM 54.1°F12.3°C 50.0°F10.0°C 83% 3.1 mph NE5.0 kmh NE 5.4 mph8.7 kmh 29.56 in1001.0 mb 0.00 in0.0 mm 0.00 in0.0 mm 0.00 in0.0 mm
02:45 AM 55.0°F12.8°C 48.2°F9.0°C 77% 3.1 mph NE5.0 kmh NE 5.4 mph8.7 kmh 29.53 in1000.0 mb 0.00 in0.0 mm 0.00 in0.0 mm 0.00 in0.0 mm
02:30 AM 55.8°F13.2°C 48.2°F9.0°C 75% 3.1 mph NE5.0 kmh NE 5.4 mph8.7 kmh 29.56 in1001.0 mb 0.00 in0.0 mm 0.00 in0.0 mm 0.00 in0.0 mm
02:15 AM 55.6°F13.1°C 48.2°F9.0°C 76% 3.1 mph NE5.0 kmh NE 5.4 mph8.7 kmh 29.56 in1001.0 mb 0.00 in0.0 mm 0.00 in0.0 mm 0.00 in0.0 mm
02:00 AM 55.4°F13.0°C 48.2°F9.0°C 76% 3.1 mph NE5.0 kmh NE 5.4 mph8.7 kmh 29.56 in1001.0 mb 0.00 in0.0 mm 0.00 in0.0 mm 0.00 in0.0 mm
01:45 AM 55.4°F13.0°C 48.2°F9.0°C 77% 3.1 mph NE5.0 kmh NE 5.4 mph8.7 kmh 29.56 in1001.0 mb 0.00 in0.0 mm 0.00 in0.0 mm 0.00 in0.0 mm
01:30 AM 55.4°F13.0°C 48.2°F9.0°C 77% 3.1 mph NE5.0 kmh NE 5.4 mph8.7 kmh 29.59 in1002.0 mb 0.00 in0.0 mm 0.00 in0.0 mm 0.00 in0.0 mm
01:15 AM 55.4°F13.0°C 48.2°F9.0°C 76% 3.1 mph NE5.0 kmh NE 5.4 mph8.7 kmh 29.59 in1002.0 mb 0.00 in0.0 mm 0.00 in0.0 mm 0.00 in0.0 mm
01:00 AM 55.8°F13.2°C 48.2°F9.0°C 74% 3.1 mph NE5.0 kmh NE 5.4 mph8.7 kmh 29.59 in1002.0 mb 0.00 in0.0 mm 0.00 in0.0 mm 0.00 in0.0 mm
12:45 AM 55.8°F13.2°C 48.2°F9.0°C 74% 3.1 mph NE5.0 kmh NE 5.4 mph8.7 kmh 29.59 in1002.0 mb 0.00 in0.0 mm 0.00 in0.0 mm 0.00 in0.0 mm
12:30 AM 55.6°F13.1°C 48.2°F9.0°C 74% 3.1 mph NE5.0 kmh NE 5.4 mph8.7 kmh 29.62 in1003.0 mb 0.00 in0.0 mm 0.00 in0.0 mm 0.00 in0.0 mm
12:15 AM 55.6°F13.1°C 48.2°F9.0°C 73% 3.1 mph NE5.0 kmh NE 5.4 mph8.7 kmh 29.62 in1003.0 mb 0.00 in0.0 mm 0.00 in0.0 mm 0.00 in0.0 mm
12:00 AM 55.6°F13.1°C 48.2°F9.0°C 72% 3.1 mph NE5.0 kmh NE 5.4 mph8.7 kmh 29.62 in1003.0 mb 0.00 in0.0 mm 0.00 in0.0 mm 0.00 in0.0 mm